<?xml version="1.0" encoding="UTF-8" standalone="no" ?>
<gpx xmlns="http://www.topografix.com/GPX/1/1" xmlns:xsi="http://www.w3.org/2001/XMLSchema-instance" xsi:schemaLocation="http://www.topografix.com/GPX/1/1 http://www.topografix.com/GPX/1/1/gpx.xsd" version="1.1" creator="VisuGPX - https://www.visugpx.com">
  <metadata>
    <name>Autour de Langlade</name>
    <desc><![CDATA[Langlade - L\\\'oppidum de Nage]]></desc>
  </metadata>
  <trk>
    <name><![CDATA[Autour de Langlade_1]]></name>
    <trkseg>
      <trkpt lat="43.80558" lon="4.24668">
        <ele>78</ele>
        <time>2015-01-04T09:10:52Z</time>
      </trkpt>
      <trkpt lat="43.80558" lon="4.24659">
        <ele>71</ele>
        <time>2015-01-04T09:11:05Z</time>
      </trkpt>
      <trkpt lat="43.80551" lon="4.24653">
        <ele>75</ele>
        <time>2015-01-04T09:11:32Z</time>
      </trkpt>
      <trkpt lat="43.80542" lon="4.24652">
        <ele>79</ele>
        <time>2015-01-04T09:11:42Z</time>
      </trkpt>
      <trkpt lat="43.80531" lon="4.24656">
        <ele>79</ele>
        <time>2015-01-04T09:11:48Z</time>
      </trkpt>
      <trkpt lat="43.80516" lon="4.24665">
        <ele>76</ele>
        <time>2015-01-04T09:12:00Z</time>
      </trkpt>
      <trkpt lat="43.80503" lon="4.24678">
        <ele>77</ele>
        <time>2015-01-04T09:12:14Z</time>
      </trkpt>
      <trkpt lat="43.80493" lon="4.24686">
        <ele>78</ele>
        <time>2015-01-04T09:12:27Z</time>
      </trkpt>
      <trkpt lat="43.80472" lon="4.247">
        <ele>84</ele>
        <time>2015-01-04T09:12:56Z</time>
      </trkpt>
      <trkpt lat="43.80461" lon="4.24705">
        <ele>83</ele>
        <time>2015-01-04T09:13:04Z</time>
      </trkpt>
      <trkpt lat="43.80431" lon="4.24727">
        <ele>85</ele>
        <time>2015-01-04T09:13:32Z</time>
      </trkpt>
      <trkpt lat="43.80416" lon="4.24732">
        <ele>84</ele>
        <time>2015-01-04T09:13:46Z</time>
      </trkpt>
      <trkpt lat="43.804" lon="4.24742">
        <ele>84</ele>
        <time>2015-01-04T09:14:04Z</time>
      </trkpt>
      <trkpt lat="43.80367" lon="4.24757">
        <ele>85</ele>
        <time>2015-01-04T09:14:31Z</time>
      </trkpt>
      <trkpt lat="43.80344" lon="4.24774">
        <ele>83</ele>
        <time>2015-01-04T09:14:52Z</time>
      </trkpt>
      <trkpt lat="43.80341" lon="4.24779">
        <ele>84</ele>
        <time>2015-01-04T09:14:58Z</time>
      </trkpt>
      <trkpt lat="43.80339" lon="4.24787">
        <ele>84</ele>
        <time>2015-01-04T09:15:03Z</time>
      </trkpt>
      <trkpt lat="43.80339" lon="4.2482">
        <ele>88</ele>
        <time>2015-01-04T09:15:24Z</time>
      </trkpt>
      <trkpt lat="43.80336" lon="4.24831">
        <ele>90</ele>
        <time>2015-01-04T09:15:32Z</time>
      </trkpt>
      <trkpt lat="43.80327" lon="4.24845">
        <ele>92</ele>
        <time>2015-01-04T09:15:57Z</time>
      </trkpt>
      <trkpt lat="43.80322" lon="4.24866">
        <ele>89</ele>
        <time>2015-01-04T09:16:18Z</time>
      </trkpt>
      <trkpt lat="43.80317" lon="4.24876">
        <ele>87</ele>
        <time>2015-01-04T09:16:28Z</time>
      </trkpt>
      <trkpt lat="43.80316" lon="4.24884">
        <ele>87</ele>
        <time>2015-01-04T09:16:32Z</time>
      </trkpt>
      <trkpt lat="43.80318" lon="4.24904">
        <ele>88</ele>
        <time>2015-01-04T09:16:45Z</time>
      </trkpt>
      <trkpt lat="43.80336" lon="4.24947">
        <ele>92</ele>
        <time>2015-01-04T09:17:26Z</time>
      </trkpt>
      <trkpt lat="43.80347" lon="4.24997">
        <ele>99</ele>
        <time>2015-01-04T09:17:58Z</time>
      </trkpt>
      <trkpt lat="43.80348" lon="4.25027">
        <ele>102</ele>
        <time>2015-01-04T09:18:20Z</time>
      </trkpt>
      <trkpt lat="43.80351" lon="4.25039">
        <ele>103</ele>
        <time>2015-01-04T09:18:29Z</time>
      </trkpt>
      <trkpt lat="43.80363" lon="4.25062">
        <ele>106</ele>
        <time>2015-01-04T09:18:49Z</time>
      </trkpt>
      <trkpt lat="43.80369" lon="4.2508">
        <ele>109</ele>
        <time>2015-01-04T09:19:03Z</time>
      </trkpt>
      <trkpt lat="43.80375" lon="4.25092">
        <ele>110</ele>
        <time>2015-01-04T09:19:16Z</time>
      </trkpt>
      <trkpt lat="43.80392" lon="4.25109">
        <ele>114</ele>
        <time>2015-01-04T09:19:42Z</time>
      </trkpt>
      <trkpt lat="43.80401" lon="4.25122">
        <ele>111</ele>
        <time>2015-01-04T09:19:59Z</time>
      </trkpt>
      <trkpt lat="43.80402" lon="4.25127">
        <ele>111</ele>
        <time>2015-01-04T09:20:11Z</time>
      </trkpt>
      <trkpt lat="43.80401" lon="4.25136">
        <ele>112</ele>
        <time>2015-01-04T09:20:17Z</time>
      </trkpt>
      <trkpt lat="43.80397" lon="4.25149">
        <ele>113</ele>
        <time>2015-01-04T09:20:26Z</time>
      </trkpt>
      <trkpt lat="43.80392" lon="4.25157">
        <ele>113</ele>
        <time>2015-01-04T09:20:32Z</time>
      </trkpt>
      <trkpt lat="43.8038" lon="4.25168">
        <ele>115</ele>
        <time>2015-01-04T09:20:46Z</time>
      </trkpt>
      <trkpt lat="43.80354" lon="4.25198">
        <ele>115</ele>
        <time>2015-01-04T09:21:15Z</time>
      </trkpt>
      <trkpt lat="43.80346" lon="4.25206">
        <ele>116</ele>
        <time>2015-01-04T09:21:24Z</time>
      </trkpt>
      <trkpt lat="43.80332" lon="4.2521">
        <ele>117</ele>
        <time>2015-01-04T09:21:38Z</time>
      </trkpt>
      <trkpt lat="43.8031" lon="4.25203">
        <ele>116</ele>
        <time>2015-01-04T09:21:58Z</time>
      </trkpt>
      <trkpt lat="43.8029" lon="4.25205">
        <ele>116</ele>
        <time>2015-01-04T09:22:15Z</time>
      </trkpt>
      <trkpt lat="43.80284" lon="4.25207">
        <ele>116</ele>
        <time>2015-01-04T09:22:21Z</time>
      </trkpt>
      <trkpt lat="43.80266" lon="4.25219">
        <ele>116</ele>
        <time>2015-01-04T09:22:39Z</time>
      </trkpt>
      <trkpt lat="43.80251" lon="4.25222">
        <ele>116</ele>
        <time>2015-01-04T09:22:54Z</time>
      </trkpt>
      <trkpt lat="43.80245" lon="4.25221">
        <ele>116</ele>
        <time>2015-01-04T09:23:01Z</time>
      </trkpt>
      <trkpt lat="43.80242" lon="4.25251">
        <ele>117</ele>
        <time>2015-01-04T09:23:24Z</time>
      </trkpt>
      <trkpt lat="43.80243" lon="4.25256">
        <ele>117</ele>
        <time>2015-01-04T09:23:27Z</time>
      </trkpt>
      <trkpt lat="43.80245" lon="4.25261">
        <ele>117</ele>
        <time>2015-01-04T09:23:32Z</time>
      </trkpt>
      <trkpt lat="43.80249" lon="4.2526">
        <ele>117</ele>
        <time>2015-01-04T09:23:37Z</time>
      </trkpt>
      <trkpt lat="43.80252" lon="4.25258">
        <ele>120</ele>
        <time>2015-01-04T09:23:50Z</time>
      </trkpt>
      <trkpt lat="43.80263" lon="4.25268">
        <ele>118</ele>
        <time>2015-01-04T09:24:08Z</time>
      </trkpt>
      <trkpt lat="43.80267" lon="4.25281">
        <ele>119</ele>
        <time>2015-01-04T09:24:19Z</time>
      </trkpt>
      <trkpt lat="43.80269" lon="4.25294">
        <ele>117</ele>
        <time>2015-01-04T09:24:29Z</time>
      </trkpt>
      <trkpt lat="43.80274" lon="4.25305">
        <ele>117</ele>
        <time>2015-01-04T09:24:37Z</time>
      </trkpt>
      <trkpt lat="43.80282" lon="4.25318">
        <ele>118</ele>
        <time>2015-01-04T09:24:49Z</time>
      </trkpt>
      <trkpt lat="43.80293" lon="4.25328">
        <ele>119</ele>
        <time>2015-01-04T09:25:01Z</time>
      </trkpt>
      <trkpt lat="43.80304" lon="4.25337">
        <ele>120</ele>
        <time>2015-01-04T09:25:14Z</time>
      </trkpt>
      <trkpt lat="43.80319" lon="4.25343">
        <ele>122</ele>
        <time>2015-01-04T09:25:27Z</time>
      </trkpt>
      <trkpt lat="43.8033" lon="4.25351">
        <ele>123</ele>
        <time>2015-01-04T09:25:38Z</time>
      </trkpt>
      <trkpt lat="43.80352" lon="4.2537">
        <ele>124</ele>
        <time>2015-01-04T09:26:01Z</time>
      </trkpt>
      <trkpt lat="43.80385" lon="4.25404">
        <ele>126</ele>
        <time>2015-01-04T09:26:36Z</time>
      </trkpt>
      <trkpt lat="43.80398" lon="4.25414">
        <ele>129</ele>
        <time>2015-01-04T09:26:50Z</time>
      </trkpt>
      <trkpt lat="43.8041" lon="4.25418">
        <ele>131</ele>
        <time>2015-01-04T09:27:01Z</time>
      </trkpt>
      <trkpt lat="43.80433" lon="4.25417">
        <ele>131</ele>
        <time>2015-01-04T09:27:20Z</time>
      </trkpt>
      <trkpt lat="43.80441" lon="4.2542">
        <ele>132</ele>
        <time>2015-01-04T09:27:27Z</time>
      </trkpt>
      <trkpt lat="43.80447" lon="4.25424">
        <ele>134</ele>
        <time>2015-01-04T09:27:33Z</time>
      </trkpt>
      <trkpt lat="43.80472" lon="4.2545">
        <ele>136</ele>
        <time>2015-01-04T09:28:00Z</time>
      </trkpt>
      <trkpt lat="43.80497" lon="4.25484">
        <ele>135</ele>
        <time>2015-01-04T09:28:29Z</time>
      </trkpt>
      <trkpt lat="43.80522" lon="4.25512">
        <ele>137</ele>
        <time>2015-01-04T09:28:59Z</time>
      </trkpt>
      <trkpt lat="43.80575" lon="4.25577">
        <ele>138</ele>
        <time>2015-01-04T09:29:58Z</time>
      </trkpt>
      <trkpt lat="43.8059" lon="4.25608">
        <ele>138</ele>
        <time>2015-01-04T09:30:20Z</time>
      </trkpt>
      <trkpt lat="43.80598" lon="4.25643">
        <ele>139</ele>
        <time>2015-01-04T09:30:45Z</time>
      </trkpt>
      <trkpt lat="43.80607" lon="4.25663">
        <ele>138</ele>
        <time>2015-01-04T09:31:01Z</time>
      </trkpt>
      <trkpt lat="43.80623" lon="4.25691">
        <ele>137</ele>
        <time>2015-01-04T09:31:21Z</time>
      </trkpt>
      <trkpt lat="43.80626" lon="4.25699">
        <ele>137</ele>
        <time>2015-01-04T09:31:26Z</time>
      </trkpt>
      <trkpt lat="43.80631" lon="4.25735">
        <ele>135</ele>
        <time>2015-01-04T09:31:48Z</time>
      </trkpt>
      <trkpt lat="43.80642" lon="4.25776">
        <ele>135</ele>
        <time>2015-01-04T09:32:15Z</time>
      </trkpt>
      <trkpt lat="43.80646" lon="4.25823">
        <ele>134</ele>
        <time>2015-01-04T09:32:43Z</time>
      </trkpt>
      <trkpt lat="43.80655" lon="4.25852">
        <ele>134</ele>
        <time>2015-01-04T09:33:01Z</time>
      </trkpt>
      <trkpt lat="43.80683" lon="4.25906">
        <ele>132</ele>
        <time>2015-01-04T09:33:40Z</time>
      </trkpt>
      <trkpt lat="43.80697" lon="4.25939">
        <ele>132</ele>
        <time>2015-01-04T09:34:03Z</time>
      </trkpt>
      <trkpt lat="43.80712" lon="4.25962">
        <ele>133</ele>
        <time>2015-01-04T09:34:23Z</time>
      </trkpt>
      <trkpt lat="43.80736" lon="4.26008">
        <ele>134</ele>
        <time>2015-01-04T09:34:58Z</time>
      </trkpt>
      <trkpt lat="43.80764" lon="4.26048">
        <ele>130</ele>
        <time>2015-01-04T09:35:31Z</time>
      </trkpt>
      <trkpt lat="43.80777" lon="4.2607">
        <ele>131</ele>
        <time>2015-01-04T09:35:47Z</time>
      </trkpt>
      <trkpt lat="43.80802" lon="4.2611">
        <ele>132</ele>
        <time>2015-01-04T09:36:19Z</time>
      </trkpt>
      <trkpt lat="43.80817" lon="4.26129">
        <ele>134</ele>
        <time>2015-01-04T09:36:36Z</time>
      </trkpt>
      <trkpt lat="43.80831" lon="4.26151">
        <ele>134</ele>
        <time>2015-01-04T09:36:53Z</time>
      </trkpt>
      <trkpt lat="43.80843" lon="4.26174">
        <ele>135</ele>
        <time>2015-01-04T09:37:09Z</time>
      </trkpt>
      <trkpt lat="43.80868" lon="4.26207">
        <ele>136</ele>
        <time>2015-01-04T09:37:39Z</time>
      </trkpt>
      <trkpt lat="43.80883" lon="4.26224">
        <ele>136</ele>
        <time>2015-01-04T09:37:54Z</time>
      </trkpt>
      <trkpt lat="43.80891" lon="4.26235">
        <ele>135</ele>
        <time>2015-01-04T09:38:03Z</time>
      </trkpt>
      <trkpt lat="43.80897" lon="4.26249">
        <ele>136</ele>
        <time>2015-01-04T09:38:13Z</time>
      </trkpt>
      <trkpt lat="43.80912" lon="4.26295">
        <ele>137</ele>
        <time>2015-01-04T09:38:44Z</time>
      </trkpt>
      <trkpt lat="43.80919" lon="4.26311">
        <ele>136</ele>
        <time>2015-01-04T09:38:55Z</time>
      </trkpt>
      <trkpt lat="43.8092" lon="4.26323">
        <ele>136</ele>
        <time>2015-01-04T09:39:02Z</time>
      </trkpt>
      <trkpt lat="43.8092" lon="4.26359">
        <ele>137</ele>
        <time>2015-01-04T09:39:24Z</time>
      </trkpt>
      <trkpt lat="43.80918" lon="4.26378">
        <ele>137</ele>
        <time>2015-01-04T09:39:35Z</time>
      </trkpt>
      <trkpt lat="43.8091" lon="4.2642">
        <ele>135</ele>
        <time>2015-01-04T09:39:59Z</time>
      </trkpt>
      <trkpt lat="43.80908" lon="4.26438">
        <ele>135</ele>
        <time>2015-01-04T09:40:10Z</time>
      </trkpt>
      <trkpt lat="43.80908" lon="4.26476">
        <ele>134</ele>
        <time>2015-01-04T09:40:33Z</time>
      </trkpt>
      <trkpt lat="43.80909" lon="4.26492">
        <ele>134</ele>
        <time>2015-01-04T09:40:43Z</time>
      </trkpt>
      <trkpt lat="43.80917" lon="4.26517">
        <ele>133</ele>
        <time>2015-01-04T09:41:11Z</time>
      </trkpt>
      <trkpt lat="43.80935" lon="4.26545">
        <ele>132</ele>
        <time>2015-01-04T09:41:44Z</time>
      </trkpt>
      <trkpt lat="43.80936" lon="4.26556">
        <ele>126</ele>
        <time>2015-01-04T09:43:14Z</time>
      </trkpt>
      <trkpt lat="43.80937" lon="4.26555">
        <ele>123</ele>
        <time>2015-01-04T09:44:22Z</time>
      </trkpt>
      <trkpt lat="43.80942" lon="4.26566">
        <ele>127</ele>
        <time>2015-01-04T09:45:19Z</time>
      </trkpt>
      <trkpt lat="43.80955" lon="4.2661">
        <ele>127</ele>
        <time>2015-01-04T09:45:48Z</time>
      </trkpt>
      <trkpt lat="43.80956" lon="4.26616">
        <ele>128</ele>
        <time>2015-01-04T09:45:53Z</time>
      </trkpt>
      <trkpt lat="43.80954" lon="4.26613">
        <ele>129</ele>
        <time>2015-01-04T09:46:12Z</time>
      </trkpt>
      <trkpt lat="43.80955" lon="4.26621">
        <ele>125</ele>
        <time>2015-01-04T09:47:25Z</time>
      </trkpt>
      <trkpt lat="43.80954" lon="4.26622">
        <ele>123</ele>
        <time>2015-01-04T09:47:34Z</time>
      </trkpt>
      <trkpt lat="43.80951" lon="4.26617">
        <ele>124</ele>
        <time>2015-01-04T09:47:55Z</time>
      </trkpt>
      <trkpt lat="43.80951" lon="4.26619">
        <ele>123</ele>
        <time>2015-01-04T09:48:05Z</time>
      </trkpt>
      <trkpt lat="43.80948" lon="4.2662">
        <ele>123</ele>
        <time>2015-01-04T09:48:09Z</time>
      </trkpt>
      <trkpt lat="43.80938" lon="4.2662">
        <ele>123</ele>
        <time>2015-01-04T09:48:23Z</time>
      </trkpt>
      <trkpt lat="43.80937" lon="4.26619">
        <ele>124</ele>
        <time>2015-01-04T09:48:33Z</time>
      </trkpt>
      <trkpt lat="43.80915" lon="4.26622">
        <ele>124</ele>
        <time>2015-01-04T09:49:06Z</time>
      </trkpt>
      <trkpt lat="43.80902" lon="4.26627">
        <ele>124</ele>
        <time>2015-01-04T09:49:20Z</time>
      </trkpt>
      <trkpt lat="43.80882" lon="4.26627">
        <ele>124</ele>
        <time>2015-01-04T09:49:40Z</time>
      </trkpt>
      <trkpt lat="43.80871" lon="4.26631">
        <ele>123</ele>
        <time>2015-01-04T09:49:50Z</time>
      </trkpt>
      <trkpt lat="43.80854" lon="4.26643">
        <ele>123</ele>
        <time>2015-01-04T09:50:07Z</time>
      </trkpt>
      <trkpt lat="43.80819" lon="4.26663">
        <ele>122</ele>
        <time>2015-01-04T09:50:42Z</time>
      </trkpt>
      <trkpt lat="43.80768" lon="4.26703">
        <ele>119</ele>
        <time>2015-01-04T09:51:33Z</time>
      </trkpt>
      <trkpt lat="43.80702" lon="4.26765">
        <ele>116</ele>
        <time>2015-01-04T09:52:44Z</time>
      </trkpt>
      <trkpt lat="43.80696" lon="4.26762">
        <ele>115</ele>
        <time>2015-01-04T09:54:57Z</time>
      </trkpt>
      <trkpt lat="43.80693" lon="4.26741">
        <ele>113</ele>
        <time>2015-01-04T09:55:13Z</time>
      </trkpt>
      <trkpt lat="43.8069" lon="4.2673">
        <ele>113</ele>
        <time>2015-01-04T09:55:24Z</time>
      </trkpt>
      <trkpt lat="43.80664" lon="4.26674">
        <ele>115</ele>
        <time>2015-01-04T09:56:08Z</time>
      </trkpt>
      <trkpt lat="43.80633" lon="4.26617">
        <ele>113</ele>
        <time>2015-01-04T09:56:53Z</time>
      </trkpt>
      <trkpt lat="43.80585" lon="4.26547">
        <ele>111</ele>
        <time>2015-01-04T09:57:52Z</time>
      </trkpt>
      <trkpt lat="43.80556" lon="4.26498">
        <ele>109</ele>
        <time>2015-01-04T09:58:32Z</time>
      </trkpt>
      <trkpt lat="43.80517" lon="4.26447">
        <ele>109</ele>
        <time>2015-01-04T09:59:18Z</time>
      </trkpt>
      <trkpt lat="43.80503" lon="4.26422">
        <ele>110</ele>
        <time>2015-01-04T09:59:38Z</time>
      </trkpt>
      <trkpt lat="43.80487" lon="4.26378">
        <ele>111</ele>
        <time>2015-01-04T10:00:08Z</time>
      </trkpt>
      <trkpt lat="43.80466" lon="4.26332">
        <ele>113</ele>
        <time>2015-01-04T10:00:41Z</time>
      </trkpt>
      <trkpt lat="43.80463" lon="4.2632">
        <ele>113</ele>
        <time>2015-01-04T10:00:49Z</time>
      </trkpt>
      <trkpt lat="43.80445" lon="4.26239">
        <ele>114</ele>
        <time>2015-01-04T10:01:42Z</time>
      </trkpt>
      <trkpt lat="43.80435" lon="4.26165">
        <ele>116</ele>
        <time>2015-01-04T10:02:30Z</time>
      </trkpt>
      <trkpt lat="43.80414" lon="4.26048">
        <ele>119</ele>
        <time>2015-01-04T10:03:48Z</time>
      </trkpt>
      <trkpt lat="43.8041" lon="4.26033">
        <ele>121</ele>
        <time>2015-01-04T10:03:59Z</time>
      </trkpt>
      <trkpt lat="43.80399" lon="4.2601">
        <ele>122</ele>
        <time>2015-01-04T10:04:17Z</time>
      </trkpt>
      <trkpt lat="43.80376" lon="4.2598">
        <ele>123</ele>
        <time>2015-01-04T10:04:43Z</time>
      </trkpt>
      <trkpt lat="43.80359" lon="4.25953">
        <ele>122</ele>
        <time>2015-01-04T10:05:05Z</time>
      </trkpt>
      <trkpt lat="43.80341" lon="4.25915">
        <ele>122</ele>
        <time>2015-01-04T10:05:33Z</time>
      </trkpt>
      <trkpt lat="43.80313" lon="4.25836">
        <ele>124</ele>
        <time>2015-01-04T10:06:25Z</time>
      </trkpt>
      <trkpt lat="43.80293" lon="4.25772">
        <ele>122</ele>
        <time>2015-01-04T10:07:08Z</time>
      </trkpt>
      <trkpt lat="43.80276" lon="4.25728">
        <ele>123</ele>
        <time>2015-01-04T10:07:39Z</time>
      </trkpt>
      <trkpt lat="43.80252" lon="4.25671">
        <ele>123</ele>
        <time>2015-01-04T10:08:18Z</time>
      </trkpt>
      <trkpt lat="43.8023" lon="4.2562">
        <ele>124</ele>
        <time>2015-01-04T10:08:52Z</time>
      </trkpt>
      <trkpt lat="43.80221" lon="4.25597">
        <ele>124</ele>
        <time>2015-01-04T10:09:09Z</time>
      </trkpt>
      <trkpt lat="43.80216" lon="4.25576">
        <ele>124</ele>
        <time>2015-01-04T10:09:24Z</time>
      </trkpt>
      <trkpt lat="43.80198" lon="4.25529">
        <ele>125</ele>
        <time>2015-01-04T10:09:57Z</time>
      </trkpt>
      <trkpt lat="43.80186" lon="4.255">
        <ele>127</ele>
        <time>2015-01-04T10:10:19Z</time>
      </trkpt>
      <trkpt lat="43.80182" lon="4.25497">
        <ele>127</ele>
        <time>2015-01-04T10:11:21Z</time>
      </trkpt>
      <trkpt lat="43.80176" lon="4.25471">
        <ele>127</ele>
        <time>2015-01-04T10:12:00Z</time>
      </trkpt>
      <trkpt lat="43.8016" lon="4.2543">
        <ele>127</ele>
        <time>2015-01-04T10:12:32Z</time>
      </trkpt>
      <trkpt lat="43.80148" lon="4.25392">
        <ele>127</ele>
        <time>2015-01-04T10:12:57Z</time>
      </trkpt>
      <trkpt lat="43.80148" lon="4.25386">
        <ele>127</ele>
        <time>2015-01-04T10:13:01Z</time>
      </trkpt>
      <trkpt lat="43.80151" lon="4.25378">
        <ele>127</ele>
        <time>2015-01-04T10:13:06Z</time>
      </trkpt>
      <trkpt lat="43.80202" lon="4.25312">
        <ele>128</ele>
        <time>2015-01-04T10:14:06Z</time>
      </trkpt>
      <trkpt lat="43.80217" lon="4.25292">
        <ele>128</ele>
        <time>2015-01-04T10:14:24Z</time>
      </trkpt>
      <trkpt lat="43.80239" lon="4.25274">
        <ele>127</ele>
        <time>2015-01-04T10:14:47Z</time>
      </trkpt>
      <trkpt lat="43.80247" lon="4.25271">
        <ele>128</ele>
        <time>2015-01-04T10:14:55Z</time>
      </trkpt>
      <trkpt lat="43.80251" lon="4.25271">
        <ele>127</ele>
        <time>2015-01-04T10:14:59Z</time>
      </trkpt>
      <trkpt lat="43.80258" lon="4.25277">
        <ele>127</ele>
        <time>2015-01-04T10:15:07Z</time>
      </trkpt>
      <trkpt lat="43.80273" lon="4.25276">
        <ele>127</ele>
        <time>2015-01-04T10:15:22Z</time>
      </trkpt>
      <trkpt lat="43.80281" lon="4.25271">
        <ele>127</ele>
        <time>2015-01-04T10:15:30Z</time>
      </trkpt>
      <trkpt lat="43.803" lon="4.25252">
        <ele>128</ele>
        <time>2015-01-04T10:15:52Z</time>
      </trkpt>
      <trkpt lat="43.8031" lon="4.25247">
        <ele>129</ele>
        <time>2015-01-04T10:16:02Z</time>
      </trkpt>
      <trkpt lat="43.80319" lon="4.25244">
        <ele>128</ele>
        <time>2015-01-04T10:16:09Z</time>
      </trkpt>
      <trkpt lat="43.80327" lon="4.25244">
        <ele>129</ele>
        <time>2015-01-04T10:16:16Z</time>
      </trkpt>
      <trkpt lat="43.80337" lon="4.25248">
        <ele>129</ele>
        <time>2015-01-04T10:16:40Z</time>
      </trkpt>
      <trkpt lat="43.80344" lon="4.25246">
        <ele>128</ele>
        <time>2015-01-04T10:17:00Z</time>
      </trkpt>
      <trkpt lat="43.80352" lon="4.25251">
        <ele>128</ele>
        <time>2015-01-04T10:17:28Z</time>
      </trkpt>
      <trkpt lat="43.80356" lon="4.25248">
        <ele>127</ele>
        <time>2015-01-04T10:17:37Z</time>
      </trkpt>
      <trkpt lat="43.80362" lon="4.25234">
        <ele>127</ele>
        <time>2015-01-04T10:17:51Z</time>
      </trkpt>
      <trkpt lat="43.80363" lon="4.25232">
        <ele>127</ele>
        <time>2015-01-04T10:17:55Z</time>
      </trkpt>
      <trkpt lat="43.80363" lon="4.25235">
        <ele>127</ele>
        <time>2015-01-04T10:18:21Z</time>
      </trkpt>
      <trkpt lat="43.80366" lon="4.25232">
        <ele>125</ele>
        <time>2015-01-04T10:18:44Z</time>
      </trkpt>
      <trkpt lat="43.8037" lon="4.25225">
        <ele>124</ele>
        <time>2015-01-04T10:18:54Z</time>
      </trkpt>
      <trkpt lat="43.80374" lon="4.25223">
        <ele>124</ele>
        <time>2015-01-04T10:19:01Z</time>
      </trkpt>
      <trkpt lat="43.8039" lon="4.25222">
        <ele>124</ele>
        <time>2015-01-04T10:19:21Z</time>
      </trkpt>
      <trkpt lat="43.80412" lon="4.25216">
        <ele>124</ele>
        <time>2015-01-04T10:19:43Z</time>
      </trkpt>
      <trkpt lat="43.80429" lon="4.25209">
        <ele>124</ele>
        <time>2015-01-04T10:20:02Z</time>
      </trkpt>
      <trkpt lat="43.80447" lon="4.25207">
        <ele>126</ele>
        <time>2015-01-04T10:20:19Z</time>
      </trkpt>
      <trkpt lat="43.80463" lon="4.25198">
        <ele>125</ele>
        <time>2015-01-04T10:20:33Z</time>
      </trkpt>
      <trkpt lat="43.80482" lon="4.25192">
        <ele>124</ele>
        <time>2015-01-04T10:20:49Z</time>
      </trkpt>
      <trkpt lat="43.80493" lon="4.25191">
        <ele>123</ele>
        <time>2015-01-04T10:20:58Z</time>
      </trkpt>
      <trkpt lat="43.80511" lon="4.25193">
        <ele>121</ele>
        <time>2015-01-04T10:21:12Z</time>
      </trkpt>
      <trkpt lat="43.80526" lon="4.25191">
        <ele>120</ele>
        <time>2015-01-04T10:21:27Z</time>
      </trkpt>
      <trkpt lat="43.8053" lon="4.25187">
        <ele>119</ele>
        <time>2015-01-04T10:21:32Z</time>
      </trkpt>
      <trkpt lat="43.80533" lon="4.25182">
        <ele>119</ele>
        <time>2015-01-04T10:21:36Z</time>
      </trkpt>
      <trkpt lat="43.80536" lon="4.25173">
        <ele>118</ele>
        <time>2015-01-04T10:21:42Z</time>
      </trkpt>
      <trkpt lat="43.80537" lon="4.25163">
        <ele>118</ele>
        <time>2015-01-04T10:21:47Z</time>
      </trkpt>
      <trkpt lat="43.80522" lon="4.25101">
        <ele>114</ele>
        <time>2015-01-04T10:22:27Z</time>
      </trkpt>
      <trkpt lat="43.80502" lon="4.25072">
        <ele>112</ele>
        <time>2015-01-04T10:22:51Z</time>
      </trkpt>
      <trkpt lat="43.80494" lon="4.25051">
        <ele>107</ele>
        <time>2015-01-04T10:23:07Z</time>
      </trkpt>
      <trkpt lat="43.80486" lon="4.25042">
        <ele>107</ele>
        <time>2015-01-04T10:23:15Z</time>
      </trkpt>
      <trkpt lat="43.80469" lon="4.25025">
        <ele>108</ele>
        <time>2015-01-04T10:23:34Z</time>
      </trkpt>
      <trkpt lat="43.80451" lon="4.24994">
        <ele>108</ele>
        <time>2015-01-04T10:23:58Z</time>
      </trkpt>
      <trkpt lat="43.80444" lon="4.24973">
        <ele>107</ele>
        <time>2015-01-04T10:24:14Z</time>
      </trkpt>
      <trkpt lat="43.80439" lon="4.24964">
        <ele>106</ele>
        <time>2015-01-04T10:24:22Z</time>
      </trkpt>
      <trkpt lat="43.80425" lon="4.24948">
        <ele>107</ele>
        <time>2015-01-04T10:24:37Z</time>
      </trkpt>
      <trkpt lat="43.80405" lon="4.24932">
        <ele>107</ele>
        <time>2015-01-04T10:24:54Z</time>
      </trkpt>
      <trkpt lat="43.80401" lon="4.24926">
        <ele>108</ele>
        <time>2015-01-04T10:24:59Z</time>
      </trkpt>
      <trkpt lat="43.80388" lon="4.24897">
        <ele>107</ele>
        <time>2015-01-04T10:25:19Z</time>
      </trkpt>
      <trkpt lat="43.80373" lon="4.24876">
        <ele>108</ele>
        <time>2015-01-04T10:25:36Z</time>
      </trkpt>
      <trkpt lat="43.80369" lon="4.24863">
        <ele>107</ele>
        <time>2015-01-04T10:25:45Z</time>
      </trkpt>
      <trkpt lat="43.80366" lon="4.24846">
        <ele>107</ele>
        <time>2015-01-04T10:25:56Z</time>
      </trkpt>
      <trkpt lat="43.80361" lon="4.24835">
        <ele>110</ele>
        <time>2015-01-04T10:26:05Z</time>
      </trkpt>
      <trkpt lat="43.80344" lon="4.24821">
        <ele>112</ele>
        <time>2015-01-04T10:26:19Z</time>
      </trkpt>
      <trkpt lat="43.8034" lon="4.24815">
        <ele>112</ele>
        <time>2015-01-04T10:26:26Z</time>
      </trkpt>
      <trkpt lat="43.80336" lon="4.24802">
        <ele>111</ele>
        <time>2015-01-04T10:26:34Z</time>
      </trkpt>
      <trkpt lat="43.80337" lon="4.24789">
        <ele>110</ele>
        <time>2015-01-04T10:26:42Z</time>
      </trkpt>
      <trkpt lat="43.80339" lon="4.24778">
        <ele>110</ele>
        <time>2015-01-04T10:26:51Z</time>
      </trkpt>
      <trkpt lat="43.80339" lon="4.24769">
        <ele>108</ele>
        <time>2015-01-04T10:27:50Z</time>
      </trkpt>
      <trkpt lat="43.8033" lon="4.24719">
        <ele>106</ele>
        <time>2015-01-04T10:28:25Z</time>
      </trkpt>
      <trkpt lat="43.80325" lon="4.24704">
        <ele>107</ele>
        <time>2015-01-04T10:28:49Z</time>
      </trkpt>
      <trkpt lat="43.80308" lon="4.24681">
        <ele>106</ele>
        <time>2015-01-04T10:29:26Z</time>
      </trkpt>
      <trkpt lat="43.80294" lon="4.24644">
        <ele>105</ele>
        <time>2015-01-04T10:29:53Z</time>
      </trkpt>
      <trkpt lat="43.80289" lon="4.24642">
        <ele>105</ele>
        <time>2015-01-04T10:30:00Z</time>
      </trkpt>
      <trkpt lat="43.80273" lon="4.24645">
        <ele>106</ele>
        <time>2015-01-04T10:30:16Z</time>
      </trkpt>
      <trkpt lat="43.80242" lon="4.24642">
        <ele>107</ele>
        <time>2015-01-04T10:30:53Z</time>
      </trkpt>
      <trkpt lat="43.80233" lon="4.24641">
        <ele>108</ele>
        <time>2015-01-04T10:31:02Z</time>
      </trkpt>
      <trkpt lat="43.80224" lon="4.24636">
        <ele>109</ele>
        <time>2015-01-04T10:31:14Z</time>
      </trkpt>
      <trkpt lat="43.8021" lon="4.24644">
        <ele>107</ele>
        <time>2015-01-04T10:31:35Z</time>
      </trkpt>
      <trkpt lat="43.80194" lon="4.2465">
        <ele>109</ele>
        <time>2015-01-04T10:31:52Z</time>
      </trkpt>
      <trkpt lat="43.80181" lon="4.24644">
        <ele>109</ele>
        <time>2015-01-04T10:32:08Z</time>
      </trkpt>
      <trkpt lat="43.80172" lon="4.24641">
        <ele>109</ele>
        <time>2015-01-04T10:32:21Z</time>
      </trkpt>
      <trkpt lat="43.80169" lon="4.24638">
        <ele>108</ele>
        <time>2015-01-04T10:32:26Z</time>
      </trkpt>
      <trkpt lat="43.80167" lon="4.24629">
        <ele>108</ele>
        <time>2015-01-04T10:32:39Z</time>
      </trkpt>
      <trkpt lat="43.8017" lon="4.24617">
        <ele>108</ele>
        <time>2015-01-04T10:32:51Z</time>
      </trkpt>
      <trkpt lat="43.80171" lon="4.24605">
        <ele>109</ele>
        <time>2015-01-04T10:33:01Z</time>
      </trkpt>
      <trkpt lat="43.80165" lon="4.24538">
        <ele>114</ele>
        <time>2015-01-04T10:34:08Z</time>
      </trkpt>
      <trkpt lat="43.80157" lon="4.24508">
        <ele>116</ele>
        <time>2015-01-04T10:34:33Z</time>
      </trkpt>
      <trkpt lat="43.80138" lon="4.24448">
        <ele>118</ele>
        <time>2015-01-04T10:35:23Z</time>
      </trkpt>
      <trkpt lat="43.80131" lon="4.24435">
        <ele>118</ele>
        <time>2015-01-04T10:35:34Z</time>
      </trkpt>
      <trkpt lat="43.80128" lon="4.24425">
        <ele>119</ele>
        <time>2015-01-04T10:35:43Z</time>
      </trkpt>
      <trkpt lat="43.80122" lon="4.24413">
        <ele>120</ele>
        <time>2015-01-04T10:35:57Z</time>
      </trkpt>
      <trkpt lat="43.80121" lon="4.24409">
        <ele>120</ele>
        <time>2015-01-04T10:36:12Z</time>
      </trkpt>
      <trkpt lat="43.80123" lon="4.24406">
        <ele>122</ele>
        <time>2015-01-04T10:36:30Z</time>
      </trkpt>
      <trkpt lat="43.8012" lon="4.24403">
        <ele>122</ele>
        <time>2015-01-04T10:36:40Z</time>
      </trkpt>
      <trkpt lat="43.80114" lon="4.24405">
        <ele>121</ele>
        <time>2015-01-04T10:37:06Z</time>
      </trkpt>
      <trkpt lat="43.80111" lon="4.24403">
        <ele>121</ele>
        <time>2015-01-04T10:37:12Z</time>
      </trkpt>
      <trkpt lat="43.80098" lon="4.2438">
        <ele>122</ele>
        <time>2015-01-04T10:37:36Z</time>
      </trkpt>
      <trkpt lat="43.80094" lon="4.24379">
        <ele>123</ele>
        <time>2015-01-04T10:37:41Z</time>
      </trkpt>
      <trkpt lat="43.80084" lon="4.24378">
        <ele>125</ele>
        <time>2015-01-04T10:37:58Z</time>
      </trkpt>
      <trkpt lat="43.80083" lon="4.24377">
        <ele>126</ele>
        <time>2015-01-04T10:38:09Z</time>
      </trkpt>
      <trkpt lat="43.80082" lon="4.24379">
        <ele>129</ele>
        <time>2015-01-04T10:38:31Z</time>
      </trkpt>
      <trkpt lat="43.80081" lon="4.24379">
        <ele>128</ele>
        <time>2015-01-04T10:38:51Z</time>
      </trkpt>
      <trkpt lat="43.80072" lon="4.24362">
        <ele>126</ele>
        <time>2015-01-04T10:39:07Z</time>
      </trkpt>
      <trkpt lat="43.80051" lon="4.24337">
        <ele>129</ele>
        <time>2015-01-04T10:39:35Z</time>
      </trkpt>
      <trkpt lat="43.8004" lon="4.24328">
        <ele>129</ele>
        <time>2015-01-04T10:39:48Z</time>
      </trkpt>
      <trkpt lat="43.80028" lon="4.24323">
        <ele>130</ele>
        <time>2015-01-04T10:40:00Z</time>
      </trkpt>
      <trkpt lat="43.80022" lon="4.24317">
        <ele>131</ele>
        <time>2015-01-04T10:40:07Z</time>
      </trkpt>
      <trkpt lat="43.8002" lon="4.24305">
        <ele>130</ele>
        <time>2015-01-04T10:40:16Z</time>
      </trkpt>
      <trkpt lat="43.80023" lon="4.24276">
        <ele>131</ele>
        <time>2015-01-04T10:40:37Z</time>
      </trkpt>
      <trkpt lat="43.80022" lon="4.24244">
        <ele>134</ele>
        <time>2015-01-04T10:41:02Z</time>
      </trkpt>
      <trkpt lat="43.80024" lon="4.2422">
        <ele>135</ele>
        <time>2015-01-04T10:41:24Z</time>
      </trkpt>
      <trkpt lat="43.80021" lon="4.24172">
        <ele>137</ele>
        <time>2015-01-04T10:42:05Z</time>
      </trkpt>
      <trkpt lat="43.80018" lon="4.24154">
        <ele>138</ele>
        <time>2015-01-04T10:42:21Z</time>
      </trkpt>
      <trkpt lat="43.8001" lon="4.2413">
        <ele>139</ele>
        <time>2015-01-04T10:42:46Z</time>
      </trkpt>
      <trkpt lat="43.79996" lon="4.24099">
        <ele>140</ele>
        <time>2015-01-04T10:43:19Z</time>
      </trkpt>
      <trkpt lat="43.7998" lon="4.24075">
        <ele>135</ele>
        <time>2015-01-04T10:43:48Z</time>
      </trkpt>
      <trkpt lat="43.79958" lon="4.24051">
        <ele>139</ele>
        <time>2015-01-04T10:44:27Z</time>
      </trkpt>
      <trkpt lat="43.79954" lon="4.24044">
        <ele>140</ele>
        <time>2015-01-04T10:44:35Z</time>
      </trkpt>
      <trkpt lat="43.79955" lon="4.24037">
        <ele>139</ele>
        <time>2015-01-04T10:44:41Z</time>
      </trkpt>
      <trkpt lat="43.79965" lon="4.2403">
        <ele>141</ele>
        <time>2015-01-04T10:44:54Z</time>
      </trkpt>
      <trkpt lat="43.79968" lon="4.24024">
        <ele>141</ele>
        <time>2015-01-04T10:45:01Z</time>
      </trkpt>
      <trkpt lat="43.79976" lon="4.24003">
        <ele>144</ele>
        <time>2015-01-04T10:45:19Z</time>
      </trkpt>
      <trkpt lat="43.79984" lon="4.23988">
        <ele>146</ele>
        <time>2015-01-04T10:45:35Z</time>
      </trkpt>
      <trkpt lat="43.79989" lon="4.23974">
        <ele>147</ele>
        <time>2015-01-04T10:45:45Z</time>
      </trkpt>
      <trkpt lat="43.79991" lon="4.2396">
        <ele>148</ele>
        <time>2015-01-04T10:45:55Z</time>
      </trkpt>
      <trkpt lat="43.79989" lon="4.2394">
        <ele>148</ele>
        <time>2015-01-04T10:46:08Z</time>
      </trkpt>
      <trkpt lat="43.79993" lon="4.23904">
        <ele>149</ele>
        <time>2015-01-04T10:46:35Z</time>
      </trkpt>
      <trkpt lat="43.7999" lon="4.23867">
        <ele>153</ele>
        <time>2015-01-04T10:47:03Z</time>
      </trkpt>
      <trkpt lat="43.79995" lon="4.23817">
        <ele>155</ele>
        <time>2015-01-04T10:47:37Z</time>
      </trkpt>
      <trkpt lat="43.79993" lon="4.23805">
        <ele>156</ele>
        <time>2015-01-04T10:47:49Z</time>
      </trkpt>
      <trkpt lat="43.79996" lon="4.23785">
        <ele>157</ele>
        <time>2015-01-04T10:48:08Z</time>
      </trkpt>
      <trkpt lat="43.79999" lon="4.2378">
        <ele>158</ele>
        <time>2015-01-04T10:48:13Z</time>
      </trkpt>
      <trkpt lat="43.80004" lon="4.23777">
        <ele>159</ele>
        <time>2015-01-04T10:48:19Z</time>
      </trkpt>
      <trkpt lat="43.80009" lon="4.23778">
        <ele>159</ele>
        <time>2015-01-04T10:48:24Z</time>
      </trkpt>
      <trkpt lat="43.8004" lon="4.23792">
        <ele>160</ele>
        <time>2015-01-04T10:48:55Z</time>
      </trkpt>
      <trkpt lat="43.80056" lon="4.23801">
        <ele>161</ele>
        <time>2015-01-04T10:49:11Z</time>
      </trkpt>
      <trkpt lat="43.80074" lon="4.23809">
        <ele>162</ele>
        <time>2015-01-04T10:49:31Z</time>
      </trkpt>
      <trkpt lat="43.80098" lon="4.23812">
        <ele>164</ele>
        <time>2015-01-04T10:50:33Z</time>
      </trkpt>
      <trkpt lat="43.8012" lon="4.2382">
        <ele>165</ele>
        <time>2015-01-04T10:50:56Z</time>
      </trkpt>
      <trkpt lat="43.8013" lon="4.23818">
        <ele>167</ele>
        <time>2015-01-04T10:51:27Z</time>
      </trkpt>
      <trkpt lat="43.80135" lon="4.23815">
        <ele>167</ele>
        <time>2015-01-04T10:51:34Z</time>
      </trkpt>
      <trkpt lat="43.8014" lon="4.23807">
        <ele>166</ele>
        <time>2015-01-04T10:51:42Z</time>
      </trkpt>
      <trkpt lat="43.80154" lon="4.23764">
        <ele>167</ele>
        <time>2015-01-04T10:52:19Z</time>
      </trkpt>
      <trkpt lat="43.80173" lon="4.23744">
        <ele>168</ele>
        <time>2015-01-04T10:52:46Z</time>
      </trkpt>
      <trkpt lat="43.80181" lon="4.23742">
        <ele>166</ele>
        <time>2015-01-04T10:52:56Z</time>
      </trkpt>
      <trkpt lat="43.80186" lon="4.23743">
        <ele>165</ele>
        <time>2015-01-04T10:53:03Z</time>
      </trkpt>
      <trkpt lat="43.80198" lon="4.23765">
        <ele>167</ele>
        <time>2015-01-04T10:53:24Z</time>
      </trkpt>
      <trkpt lat="43.80204" lon="4.23769">
        <ele>167</ele>
        <time>2015-01-04T10:53:31Z</time>
      </trkpt>
      <trkpt lat="43.80208" lon="4.23771">
        <ele>168</ele>
        <time>2015-01-04T10:53:36Z</time>
      </trkpt>
      <trkpt lat="43.80215" lon="4.23769">
        <ele>169</ele>
        <time>2015-01-04T10:53:43Z</time>
      </trkpt>
      <trkpt lat="43.80219" lon="4.23766">
        <ele>169</ele>
        <time>2015-01-04T10:53:48Z</time>
      </trkpt>
      <trkpt lat="43.80241" lon="4.23748">
        <ele>174</ele>
        <time>2015-01-04T10:54:17Z</time>
      </trkpt>
      <trkpt lat="43.80242" lon="4.23746">
        <ele>175</ele>
        <time>2015-01-04T10:54:21Z</time>
      </trkpt>
      <trkpt lat="43.80241" lon="4.23744">
        <ele>175</ele>
        <time>2015-01-04T10:54:44Z</time>
      </trkpt>
      <trkpt lat="43.8024" lon="4.23744">
        <ele>176</ele>
        <time>2015-01-04T10:54:50Z</time>
      </trkpt>
      <trkpt lat="43.80241" lon="4.2374">
        <ele>176</ele>
        <time>2015-01-04T10:55:07Z</time>
      </trkpt>
      <trkpt lat="43.80244" lon="4.23737">
        <ele>176</ele>
        <time>2015-01-04T10:55:12Z</time>
      </trkpt>
      <trkpt lat="43.80249" lon="4.23736">
        <ele>176</ele>
        <time>2015-01-04T10:55:19Z</time>
      </trkpt>
      <trkpt lat="43.8025" lon="4.23733">
        <ele>176</ele>
        <time>2015-01-04T10:55:25Z</time>
      </trkpt>
      <trkpt lat="43.80252" lon="4.23715">
        <ele>175</ele>
        <time>2015-01-04T10:55:50Z</time>
      </trkpt>
      <trkpt lat="43.80248" lon="4.23694">
        <ele>171</ele>
        <time>2015-01-04T10:56:14Z</time>
      </trkpt>
      <trkpt lat="43.80252" lon="4.23668">
        <ele>165</ele>
        <time>2015-01-04T10:56:49Z</time>
      </trkpt>
      <trkpt lat="43.80246" lon="4.23626">
        <ele>157</ele>
        <time>2015-01-04T10:57:31Z</time>
      </trkpt>
      <trkpt lat="43.80236" lon="4.236">
        <ele>155</ele>
        <time>2015-01-04T10:57:49Z</time>
      </trkpt>
      <trkpt lat="43.80229" lon="4.23562">
        <ele>154</ele>
        <time>2015-01-04T10:58:13Z</time>
      </trkpt>
      <trkpt lat="43.80216" lon="4.23535">
        <ele>154</ele>
        <time>2015-01-04T10:58:35Z</time>
      </trkpt>
      <trkpt lat="43.8021" lon="4.23503">
        <ele>154</ele>
        <time>2015-01-04T10:58:57Z</time>
      </trkpt>
      <trkpt lat="43.80188" lon="4.23431">
        <ele>156</ele>
        <time>2015-01-04T10:59:55Z</time>
      </trkpt>
      <trkpt lat="43.80178" lon="4.23402">
        <ele>156</ele>
        <time>2015-01-04T11:00:14Z</time>
      </trkpt>
      <trkpt lat="43.80164" lon="4.23379">
        <ele>157</ele>
        <time>2015-01-04T11:00:33Z</time>
      </trkpt>
      <trkpt lat="43.80157" lon="4.23362">
        <ele>157</ele>
        <time>2015-01-04T11:00:47Z</time>
      </trkpt>
      <trkpt lat="43.80133" lon="4.23324">
        <ele>159</ele>
        <time>2015-01-04T11:01:20Z</time>
      </trkpt>
      <trkpt lat="43.80123" lon="4.2331">
        <ele>158</ele>
        <time>2015-01-04T11:01:33Z</time>
      </trkpt>
      <trkpt lat="43.80114" lon="4.23294">
        <ele>158</ele>
        <time>2015-01-04T11:01:46Z</time>
      </trkpt>
      <trkpt lat="43.80091" lon="4.23262">
        <ele>158</ele>
        <time>2015-01-04T11:02:17Z</time>
      </trkpt>
      <trkpt lat="43.80085" lon="4.23258">
        <ele>158</ele>
        <time>2015-01-04T11:02:30Z</time>
      </trkpt>
      <trkpt lat="43.80083" lon="4.23258">
        <ele>159</ele>
        <time>2015-01-04T11:02:40Z</time>
      </trkpt>
      <trkpt lat="43.80082" lon="4.23254">
        <ele>148</ele>
        <time>2015-01-04T11:06:01Z</time>
      </trkpt>
      <trkpt lat="43.80083" lon="4.23255">
        <ele>149</ele>
        <time>2015-01-04T11:06:07Z</time>
      </trkpt>
      <trkpt lat="43.8008" lon="4.23209">
        <ele>154</ele>
        <time>2015-01-04T11:07:07Z</time>
      </trkpt>
      <trkpt lat="43.80083" lon="4.23193">
        <ele>142</ele>
        <time>2015-01-04T11:07:24Z</time>
      </trkpt>
      <trkpt lat="43.80084" lon="4.23178">
        <ele>146</ele>
        <time>2015-01-04T11:07:45Z</time>
      </trkpt>
      <trkpt lat="43.80081" lon="4.23159">
        <ele>152</ele>
        <time>2015-01-04T11:08:03Z</time>
      </trkpt>
      <trkpt lat="43.80067" lon="4.23134">
        <ele>145</ele>
        <time>2015-01-04T11:08:41Z</time>
      </trkpt>
      <trkpt lat="43.80056" lon="4.2312">
        <ele>149</ele>
        <time>2015-01-04T11:09:02Z</time>
      </trkpt>
      <trkpt lat="43.80053" lon="4.2312">
        <ele>152</ele>
        <time>2015-01-04T11:09:12Z</time>
      </trkpt>
      <trkpt lat="43.80052" lon="4.23122">
        <ele>158</ele>
        <time>2015-01-04T11:09:32Z</time>
      </trkpt>
      <trkpt lat="43.8003" lon="4.23113">
        <ele>161</ele>
        <time>2015-01-04T11:10:01Z</time>
      </trkpt>
      <trkpt lat="43.8" lon="4.23093">
        <ele>161</ele>
        <time>2015-01-04T11:10:38Z</time>
      </trkpt>
      <trkpt lat="43.79987" lon="4.23088">
        <ele>164</ele>
        <time>2015-01-04T11:11:00Z</time>
      </trkpt>
      <trkpt lat="43.79984" lon="4.23085">
        <ele>164</ele>
        <time>2015-01-04T11:11:07Z</time>
      </trkpt>
      <trkpt lat="43.79985" lon="4.23075">
        <ele>164</ele>
        <time>2015-01-04T11:11:16Z</time>
      </trkpt>
      <trkpt lat="43.79989" lon="4.23069">
        <ele>164</ele>
        <time>2015-01-04T11:11:22Z</time>
      </trkpt>
      <trkpt lat="43.8001" lon="4.23054">
        <ele>159</ele>
        <time>2015-01-04T11:11:44Z</time>
      </trkpt>
      <trkpt lat="43.80018" lon="4.23043">
        <ele>158</ele>
        <time>2015-01-04T11:11:52Z</time>
      </trkpt>
      <trkpt lat="43.80027" lon="4.23022">
        <ele>156</ele>
        <time>2015-01-04T11:12:06Z</time>
      </trkpt>
      <trkpt lat="43.80043" lon="4.22972">
        <ele>156</ele>
        <time>2015-01-04T11:13:50Z</time>
      </trkpt>
      <trkpt lat="43.80046" lon="4.22959">
        <ele>156</ele>
        <time>2015-01-04T11:14:11Z</time>
      </trkpt>
      <trkpt lat="43.80047" lon="4.22944">
        <ele>157</ele>
        <time>2015-01-04T11:14:20Z</time>
      </trkpt>
      <trkpt lat="43.80043" lon="4.22917">
        <ele>160</ele>
        <time>2015-01-04T11:14:40Z</time>
      </trkpt>
      <trkpt lat="43.80042" lon="4.22884">
        <ele>161</ele>
        <time>2015-01-04T11:15:05Z</time>
      </trkpt>
      <trkpt lat="43.80038" lon="4.22867">
        <ele>163</ele>
        <time>2015-01-04T11:15:19Z</time>
      </trkpt>
      <trkpt lat="43.80027" lon="4.22833">
        <ele>167</ele>
        <time>2015-01-04T11:15:52Z</time>
      </trkpt>
      <trkpt lat="43.80025" lon="4.22823">
        <ele>162</ele>
        <time>2015-01-04T11:16:00Z</time>
      </trkpt>
      <trkpt lat="43.80026" lon="4.22805">
        <ele>154</ele>
        <time>2015-01-04T11:16:12Z</time>
      </trkpt>
      <trkpt lat="43.80034" lon="4.22783">
        <ele>158</ele>
        <time>2015-01-04T11:16:30Z</time>
      </trkpt>
      <trkpt lat="43.80031" lon="4.22745">
        <ele>164</ele>
        <time>2015-01-04T11:17:00Z</time>
      </trkpt>
      <trkpt lat="43.80009" lon="4.22674">
        <ele>169</ele>
        <time>2015-01-04T11:17:55Z</time>
      </trkpt>
      <trkpt lat="43.80001" lon="4.22655">
        <ele>171</ele>
        <time>2015-01-04T11:18:11Z</time>
      </trkpt>
      <trkpt lat="43.79996" lon="4.22647">
        <ele>172</ele>
        <time>2015-01-04T11:18:19Z</time>
      </trkpt>
      <trkpt lat="43.7999" lon="4.22641">
        <ele>172</ele>
        <time>2015-01-04T11:18:29Z</time>
      </trkpt>
      <trkpt lat="43.79985" lon="4.2263">
        <ele>172</ele>
        <time>2015-01-04T11:18:41Z</time>
      </trkpt>
      <trkpt lat="43.79974" lon="4.22572">
        <ele>178</ele>
        <time>2015-01-04T11:19:27Z</time>
      </trkpt>
      <trkpt lat="43.79959" lon="4.22532">
        <ele>179</ele>
        <time>2015-01-04T11:19:57Z</time>
      </trkpt>
      <trkpt lat="43.79953" lon="4.22522">
        <ele>180</ele>
        <time>2015-01-04T11:20:06Z</time>
      </trkpt>
      <trkpt lat="43.79947" lon="4.22516">
        <ele>182</ele>
        <time>2015-01-04T11:20:15Z</time>
      </trkpt>
      <trkpt lat="43.79942" lon="4.22516">
        <ele>182</ele>
        <time>2015-01-04T11:20:27Z</time>
      </trkpt>
      <trkpt lat="43.79939" lon="4.22517">
        <ele>181</ele>
        <time>2015-01-04T11:20:32Z</time>
      </trkpt>
      <trkpt lat="43.79933" lon="4.22527">
        <ele>181</ele>
        <time>2015-01-04T11:20:45Z</time>
      </trkpt>
      <trkpt lat="43.79931" lon="4.22536">
        <ele>182</ele>
        <time>2015-01-04T11:20:56Z</time>
      </trkpt>
      <trkpt lat="43.79924" lon="4.2255">
        <ele>184</ele>
        <time>2015-01-04T11:21:16Z</time>
      </trkpt>
      <trkpt lat="43.79917" lon="4.22561">
        <ele>184</ele>
        <time>2015-01-04T11:21:26Z</time>
      </trkpt>
      <trkpt lat="43.79912" lon="4.22564">
        <ele>185</ele>
        <time>2015-01-04T11:21:32Z</time>
      </trkpt>
      <trkpt lat="43.79904" lon="4.22562">
        <ele>184</ele>
        <time>2015-01-04T11:21:40Z</time>
      </trkpt>
      <trkpt lat="43.79898" lon="4.22558">
        <ele>183</ele>
        <time>2015-01-04T11:21:47Z</time>
      </trkpt>
      <trkpt lat="43.79895" lon="4.22556">
        <ele>183</ele>
        <time>2015-01-04T11:21:52Z</time>
      </trkpt>
      <trkpt lat="43.79897" lon="4.22554">
        <ele>183</ele>
        <time>2015-01-04T11:22:13Z</time>
      </trkpt>
      <trkpt lat="43.79892" lon="4.22547">
        <ele>182</ele>
        <time>2015-01-04T11:22:46Z</time>
      </trkpt>
      <trkpt lat="43.79889" lon="4.22546">
        <ele>182</ele>
        <time>2015-01-04T11:23:04Z</time>
      </trkpt>
      <trkpt lat="43.79884" lon="4.22542">
        <ele>182</ele>
        <time>2015-01-04T11:23:32Z</time>
      </trkpt>
      <trkpt lat="43.79878" lon="4.2254">
        <ele>184</ele>
        <time>2015-01-04T11:23:51Z</time>
      </trkpt>
      <trkpt lat="43.79874" lon="4.22534">
        <ele>184</ele>
        <time>2015-01-04T11:24:01Z</time>
      </trkpt>
      <trkpt lat="43.79873" lon="4.22516">
        <ele>183</ele>
        <time>2015-01-04T11:24:18Z</time>
      </trkpt>
      <trkpt lat="43.79877" lon="4.2251">
        <ele>182</ele>
        <time>2015-01-04T11:24:31Z</time>
      </trkpt>
      <trkpt lat="43.7988" lon="4.22508">
        <ele>178</ele>
        <time>2015-01-04T11:25:04Z</time>
      </trkpt>
      <trkpt lat="43.799" lon="4.22504">
        <ele>181</ele>
        <time>2015-01-04T11:25:29Z</time>
      </trkpt>
      <trkpt lat="43.79915" lon="4.22499">
        <ele>182</ele>
        <time>2015-01-04T11:25:47Z</time>
      </trkpt>
      <trkpt lat="43.79921" lon="4.22492">
        <ele>183</ele>
        <time>2015-01-04T11:25:56Z</time>
      </trkpt>
      <trkpt lat="43.79926" lon="4.22481">
        <ele>181</ele>
        <time>2015-01-04T11:26:05Z</time>
      </trkpt>
      <trkpt lat="43.79922" lon="4.22466">
        <ele>181</ele>
        <time>2015-01-04T11:26:16Z</time>
      </trkpt>
      <trkpt lat="43.79905" lon="4.22432">
        <ele>182</ele>
        <time>2015-01-04T11:26:40Z</time>
      </trkpt>
      <trkpt lat="43.79896" lon="4.22408">
        <ele>184</ele>
        <time>2015-01-04T11:26:57Z</time>
      </trkpt>
      <trkpt lat="43.79892" lon="4.22389">
        <ele>186</ele>
        <time>2015-01-04T11:27:13Z</time>
      </trkpt>
      <trkpt lat="43.79891" lon="4.22368">
        <ele>187</ele>
        <time>2015-01-04T11:27:29Z</time>
      </trkpt>
      <trkpt lat="43.79879" lon="4.22346">
        <ele>185</ele>
        <time>2015-01-04T11:27:53Z</time>
      </trkpt>
      <trkpt lat="43.79875" lon="4.22318">
        <ele>186</ele>
        <time>2015-01-04T11:28:13Z</time>
      </trkpt>
      <trkpt lat="43.79871" lon="4.22306">
        <ele>187</ele>
        <time>2015-01-04T11:28:23Z</time>
      </trkpt>
      <trkpt lat="43.79866" lon="4.223">
        <ele>187</ele>
        <time>2015-01-04T11:28:30Z</time>
      </trkpt>
      <trkpt lat="43.7985" lon="4.22291">
        <ele>187</ele>
        <time>2015-01-04T11:28:45Z</time>
      </trkpt>
      <trkpt lat="43.79839" lon="4.22295">
        <ele>188</ele>
        <time>2015-01-04T11:28:57Z</time>
      </trkpt>
      <trkpt lat="43.79819" lon="4.22303">
        <ele>188</ele>
        <time>2015-01-04T11:29:15Z</time>
      </trkpt>
      <trkpt lat="43.79808" lon="4.22304">
        <ele>188</ele>
        <time>2015-01-04T11:29:27Z</time>
      </trkpt>
      <trkpt lat="43.79793" lon="4.22301">
        <ele>189</ele>
        <time>2015-01-04T11:29:39Z</time>
      </trkpt>
      <trkpt lat="43.79775" lon="4.22301">
        <ele>187</ele>
        <time>2015-01-04T11:29:52Z</time>
      </trkpt>
      <trkpt lat="43.79766" lon="4.22299">
        <ele>185</ele>
        <time>2015-01-04T11:30:02Z</time>
      </trkpt>
      <trkpt lat="43.7974" lon="4.22304">
        <ele>186</ele>
        <time>2015-01-04T11:30:23Z</time>
      </trkpt>
      <trkpt lat="43.79704" lon="4.22304">
        <ele>189</ele>
        <time>2015-01-04T11:30:53Z</time>
      </trkpt>
      <trkpt lat="43.79691" lon="4.22306">
        <ele>190</ele>
        <time>2015-01-04T11:31:06Z</time>
      </trkpt>
      <trkpt lat="43.79675" lon="4.22312">
        <ele>189</ele>
        <time>2015-01-04T11:31:22Z</time>
      </trkpt>
      <trkpt lat="43.79659" lon="4.22312">
        <ele>191</ele>
        <time>2015-01-04T11:31:37Z</time>
      </trkpt>
      <trkpt lat="43.79649" lon="4.22315">
        <ele>190</ele>
        <time>2015-01-04T11:31:45Z</time>
      </trkpt>
      <trkpt lat="43.79638" lon="4.22324">
        <ele>189</ele>
        <time>2015-01-04T11:31:57Z</time>
      </trkpt>
      <trkpt lat="43.79631" lon="4.22332">
        <ele>187</ele>
        <time>2015-01-04T11:32:10Z</time>
      </trkpt>
      <trkpt lat="43.79611" lon="4.22345">
        <ele>183</ele>
        <time>2015-01-04T11:32:32Z</time>
      </trkpt>
      <trkpt lat="43.79599" lon="4.22352">
        <ele>181</ele>
        <time>2015-01-04T11:32:44Z</time>
      </trkpt>
      <trkpt lat="43.79589" lon="4.2236">
        <ele>176</ele>
        <time>2015-01-04T11:32:53Z</time>
      </trkpt>
      <trkpt lat="43.79581" lon="4.22374">
        <ele>173</ele>
        <time>2015-01-04T11:33:04Z</time>
      </trkpt>
      <trkpt lat="43.79579" lon="4.22382">
        <ele>174</ele>
        <time>2015-01-04T11:33:11Z</time>
      </trkpt>
      <trkpt lat="43.79582" lon="4.22388">
        <ele>175</ele>
        <time>2015-01-04T11:33:17Z</time>
      </trkpt>
      <trkpt lat="43.79592" lon="4.22401">
        <ele>175</ele>
        <time>2015-01-04T11:33:30Z</time>
      </trkpt>
      <trkpt lat="43.79594" lon="4.22408">
        <ele>174</ele>
        <time>2015-01-04T11:33:36Z</time>
      </trkpt>
      <trkpt lat="43.79596" lon="4.22437">
        <ele>176</ele>
        <time>2015-01-04T11:33:54Z</time>
      </trkpt>
      <trkpt lat="43.7959" lon="4.22475">
        <ele>178</ele>
        <time>2015-01-04T11:34:19Z</time>
      </trkpt>
      <trkpt lat="43.79588" lon="4.2254">
        <ele>178</ele>
        <time>2015-01-04T11:35:01Z</time>
      </trkpt>
      <trkpt lat="43.79584" lon="4.22583">
        <ele>177</ele>
        <time>2015-01-04T11:35:38Z</time>
      </trkpt>
      <trkpt lat="43.79581" lon="4.22588">
        <ele>177</ele>
        <time>2015-01-04T11:35:43Z</time>
      </trkpt>
      <trkpt lat="43.79568" lon="4.22595">
        <ele>178</ele>
        <time>2015-01-04T11:35:56Z</time>
      </trkpt>
      <trkpt lat="43.7956" lon="4.22597">
        <ele>179</ele>
        <time>2015-01-04T11:36:04Z</time>
      </trkpt>
      <trkpt lat="43.79536" lon="4.22601">
        <ele>176</ele>
        <time>2015-01-04T11:36:21Z</time>
      </trkpt>
      <trkpt lat="43.79518" lon="4.22609">
        <ele>176</ele>
        <time>2015-01-04T11:36:39Z</time>
      </trkpt>
      <trkpt lat="43.795" lon="4.22611">
        <ele>175</ele>
        <time>2015-01-04T11:36:58Z</time>
      </trkpt>
      <trkpt lat="43.79497" lon="4.22616">
        <ele>177</ele>
        <time>2015-01-04T11:37:03Z</time>
      </trkpt>
      <trkpt lat="43.79495" lon="4.22622">
        <ele>176</ele>
        <time>2015-01-04T11:37:08Z</time>
      </trkpt>
      <trkpt lat="43.79495" lon="4.22631">
        <ele>175</ele>
        <time>2015-01-04T11:37:13Z</time>
      </trkpt>
      <trkpt lat="43.79498" lon="4.22639">
        <ele>176</ele>
        <time>2015-01-04T11:37:19Z</time>
      </trkpt>
      <trkpt lat="43.79507" lon="4.22658">
        <ele>175</ele>
        <time>2015-01-04T11:37:32Z</time>
      </trkpt>
      <trkpt lat="43.79521" lon="4.22676">
        <ele>170</ele>
        <time>2015-01-04T11:37:47Z</time>
      </trkpt>
      <trkpt lat="43.79522" lon="4.22682">
        <ele>169</ele>
        <time>2015-01-04T11:37:55Z</time>
      </trkpt>
      <trkpt lat="43.79522" lon="4.22685">
        <ele>170</ele>
        <time>2015-01-04T11:38:01Z</time>
      </trkpt>
      <trkpt lat="43.7951" lon="4.22691">
        <ele>171</ele>
        <time>2015-01-04T11:38:27Z</time>
      </trkpt>
      <trkpt lat="43.79502" lon="4.22698">
        <ele>171</ele>
        <time>2015-01-04T11:38:41Z</time>
      </trkpt>
      <trkpt lat="43.79497" lon="4.22704">
        <ele>169</ele>
        <time>2015-01-04T11:38:53Z</time>
      </trkpt>
      <trkpt lat="43.79497" lon="4.22707">
        <ele>168</ele>
        <time>2015-01-04T11:39:00Z</time>
      </trkpt>
      <trkpt lat="43.795" lon="4.22711">
        <ele>170</ele>
        <time>2015-01-04T11:39:09Z</time>
      </trkpt>
      <trkpt lat="43.79511" lon="4.22711">
        <ele>169</ele>
        <time>2015-01-04T11:39:28Z</time>
      </trkpt>
      <trkpt lat="43.7951" lon="4.22713">
        <ele>170</ele>
        <time>2015-01-04T11:39:47Z</time>
      </trkpt>
      <trkpt lat="43.79516" lon="4.22715">
        <ele>171</ele>
        <time>2015-01-04T11:40:16Z</time>
      </trkpt>
      <trkpt lat="43.79524" lon="4.22723">
        <ele>168</ele>
        <time>2015-01-04T11:40:49Z</time>
      </trkpt>
      <trkpt lat="43.79523" lon="4.22722">
        <ele>168</ele>
        <time>2015-01-04T11:41:03Z</time>
      </trkpt>
      <trkpt lat="43.79522" lon="4.22723">
        <ele>164</ele>
        <time>2015-01-04T11:41:13Z</time>
      </trkpt>
      <trkpt lat="43.79524" lon="4.22727">
        <ele>164</ele>
        <time>2015-01-04T11:41:27Z</time>
      </trkpt>
      <trkpt lat="43.79527" lon="4.22729">
        <ele>164</ele>
        <time>2015-01-04T11:41:51Z</time>
      </trkpt>
    </trkseg>
  </trk>
</gpx>